createdAt,value
2019-02-22T00:15:50.945Z,18.32
2019-02-22T00:30:52.869Z,23.45
2019-02-22T00:45:51.825Z,17.70
2019-02-22T01:00:54.176Z,17.02
2019-02-22T01:15:51.086Z,21.90
2019-02-22T01:30:50.947Z,22.60
2019-02-22T01:45:50.852Z,22.05
2019-02-22T02:00:52.772Z,20.12
2019-02-22T02:15:53.161Z,19.50
2019-02-22T02:30:51.061Z,21.17
2019-02-22T02:45:51.064Z,18.50
2019-02-22T03:00:50.903Z,24.80
2019-02-22T03:15:51.360Z,23.10
2019-02-22T03:30:51.271Z,25.88
2019-02-22T03:45:51.101Z,24.72
2019-02-22T04:00:53.274Z,21.20
2019-02-22T04:15:51.457Z,24.72
2019-02-22T04:30:50.996Z,30.08
2019-02-22T04:45:50.951Z,32.88
2019-02-22T05:00:50.900Z,35.80
2019-02-22T05:15:50.717Z,37.13
2019-02-22T05:30:51.072Z,32.13
2019-02-22T05:45:50.988Z,39.18
2019-02-22T06:00:51.377Z,38.23
2019-02-22T06:15:50.559Z,43.35
2019-02-22T06:30:50.387Z,42.10
2019-02-22T06:45:51.428Z,40.55
2019-02-22T07:00:51.229Z,42.83
2019-02-22T07:15:51.429Z,46.00
2019-02-22T07:30:56.028Z,29.72
2019-02-22T07:45:57.425Z,24.60
2019-02-22T08:00:51.202Z,33.95
2019-02-22T08:15:50.450Z,22.00
2019-02-22T08:30:53.407Z,27.13
2019-02-22T09:00:51.289Z,19.23
2019-02-22T09:15:50.676Z,23.27
2019-02-22T09:30:50.379Z,15.98
2019-02-22T09:45:51.504Z,13.43
2019-02-22T10:00:53.800Z,14.10
2019-02-22T10:15:50.775Z,14.00
2019-02-22T10:30:50.614Z,16.85
2019-02-22T10:45:50.540Z,12.33
2019-02-22T11:00:50.541Z,12.13
2019-02-22T11:15:50.825Z,8.05
2019-02-22T11:30:51.340Z,8.83
2019-02-22T11:45:50.778Z,9.20
2019-02-22T12:00:50.688Z,9.90
2019-02-22T12:15:51.044Z,7.35
2019-02-22T12:30:50.952Z,9.48
2019-02-22T12:45:50.965Z,7.00
2019-02-22T13:00:52.801Z,11.63
2019-02-22T13:15:51.228Z,8.98
2019-02-22T13:30:51.160Z,8.80
2019-02-22T13:45:51.108Z,9.80
2019-02-22T14:00:53.065Z,12.05
2019-02-22T14:15:51.397Z,8.85
2019-02-22T14:30:53.386Z,6.78
2019-02-22T14:45:53.191Z,11.88
2019-02-22T15:00:51.179Z,9.10
2019-02-22T15:16:00.558Z,9.00
2019-02-22T15:30:50.601Z,9.18
2019-02-22T15:45:50.672Z,12.70
2019-02-22T16:00:51.323Z,11.80
2019-02-22T16:15:50.735Z,5.50
2019-02-22T16:30:50.699Z,6.53
2019-02-22T16:45:52.743Z,6.47
2019-02-22T17:00:51.783Z,5.97
2019-02-22T17:15:52.934Z,8.75
2019-02-22T17:30:50.928Z,6.22
2019-02-22T17:45:50.794Z,12.35
2019-02-22T18:00:52.878Z,12.82
2019-02-22T18:15:51.672Z,17.75
2019-02-22T18:30:51.663Z,16.75
2019-02-22T18:45:51.095Z,14.40
2019-02-22T19:00:51.053Z,18.05
2019-02-22T19:15:51.785Z,21.12
2019-02-22T19:30:52.025Z,23.00
2019-02-22T19:45:51.246Z,27.62
2019-02-22T20:00:51.311Z,24.50
2019-02-22T20:15:52.721Z,18.48
2019-02-22T20:30:50.620Z,21.57
2019-02-22T20:45:51.559Z,17.17
2019-02-22T21:00:50.762Z,17.45
2019-02-22T21:15:52.704Z,14.58
2019-02-22T21:30:50.625Z,12.05
2019-02-22T21:45:50.596Z,17.20
2019-02-22T22:00:50.503Z,12.50
2019-02-22T22:15:52.496Z,11.25
2019-02-22T22:30:51.337Z,8.65
2019-02-22T22:45:51.590Z,11.08
2019-02-22T23:00:58.828Z,4.85
2019-02-22T23:15:50.563Z,2.80
2019-02-22T23:30:50.496Z,6.83
2019-02-22T23:45:50.438Z,1.92
